createdAt,value
2022-09-16T00:02:10.680Z,14.05
2022-09-16T00:05:54.371Z,14.04
2022-09-16T00:09:38.326Z,14.04
2022-09-16T00:13:21.085Z,14.04
2022-09-16T00:17:05.180Z,14.08
2022-09-16T00:20:49.131Z,14.02
2022-09-16T00:24:31.816Z,14.01
2022-09-16T00:28:14.487Z,14.04
2022-09-16T00:31:57.323Z,13.95
2022-09-16T00:35:41.378Z,13.93
2022-09-16T00:39:24.190Z,13.95
2022-09-16T00:43:07.028Z,13.95
2022-09-16T00:46:50.921Z,13.92
2022-09-16T00:50:38.359Z,13.82
2022-09-16T00:54:24.039Z,13.82
2022-09-16T00:58:10.417Z,13.82
2022-09-16T01:01:54.460Z,13.79
2022-09-16T01:05:38.378Z,13.73
2022-09-16T01:09:24.271Z,13.72
2022-09-16T01:13:09.490Z,13.68
2022-09-16T01:16:58.243Z,13.66
2022-09-16T01:21:00.166Z,13.69
2022-09-16T01:24:50.583Z,13.70
2022-09-16T01:28:46.220Z,13.62
2022-09-16T01:32:34.279Z,13.58
2022-09-16T01:36:32.801Z,13.57
2022-09-16T01:40:21.387Z,13.55
2022-09-16T01:44:09.054Z,13.52
2022-09-16T01:47:56.225Z,13.51
2022-09-16T01:51:43.511Z,13.48
2022-09-16T01:55:29.559Z,13.52
2022-09-16T01:59:15.219Z,13.51
2022-09-16T02:03:02.408Z,13.55
2022-09-16T02:06:46.418Z,13.55
2022-09-16T02:10:31.918Z,13.57
2022-09-16T02:14:18.149Z,13.53
2022-09-16T02:18:04.244Z,13.50
2022-09-16T02:21:47.230Z,13.51
2022-09-16T02:25:32.829Z,13.48
2022-09-16T02:29:18.727Z,13.51
2022-09-16T02:33:05.660Z,13.55
2022-09-16T02:36:53.169Z,13.58
2022-09-16T02:40:38.194Z,13.55
2022-09-16T02:44:20.918Z,13.54
2022-09-16T02:48:07.613Z,13.54
2022-09-16T02:51:55.773Z,13.55
2022-09-16T02:55:44.886Z,13.53
2022-09-16T02:59:27.582Z,13.48
2022-09-16T03:03:11.690Z,13.50
2022-09-16T03:06:54.402Z,13.48
2022-09-16T03:10:41.270Z,13.51
2022-09-16T03:14:53.113Z,13.47
2022-09-16T03:18:48.416Z,13.46
2022-09-16T03:22:41.560Z,13.51
2022-09-16T03:26:30.516Z,13.49
2022-09-16T03:30:13.272Z,13.48
2022-09-16T03:34:05.103Z,13.46
2022-09-16T03:37:48.083Z,13.45
2022-09-16T03:41:32.054Z,13.46
2022-09-16T03:45:17.143Z,13.50
2022-09-16T03:49:01.241Z,13.45
2022-09-16T03:52:43.942Z,13.49
2022-09-16T03:56:26.676Z,13.44
2022-09-16T04:00:11.148Z,13.42
2022-09-16T04:03:53.820Z,13.41
2022-09-16T04:07:37.894Z,13.37
2022-09-16T04:11:20.602Z,13.41
2022-09-16T04:15:03.698Z,13.41
2022-09-16T04:18:46.357Z,13.46
2022-09-16T04:22:30.559Z,13.53
2022-09-16T04:26:14.585Z,13.50
2022-09-16T04:29:57.360Z,13.47
2022-09-16T04:33:40.590Z,13.48
2022-09-16T04:37:23.237Z,13.47
2022-09-16T04:41:07.428Z,13.45
2022-09-16T04:44:51.450Z,13.46
2022-09-16T04:48:34.623Z,13.46
2022-09-16T04:52:17.320Z,13.45
2022-09-16T04:56:07.586Z,13.43
2022-09-16T04:59:51.632Z,13.45
2022-09-16T05:03:34.405Z,13.46
2022-09-16T05:07:17.123Z,13.46
2022-09-16T05:11:04.433Z,13.43
2022-09-16T05:14:47.134Z,13.46
2022-09-16T05:18:33.973Z,13.49
2022-09-16T05:22:16.617Z,13.46
2022-09-16T05:26:03.984Z,13.51
2022-09-16T05:29:46.668Z,13.39
2022-09-16T05:33:29.396Z,13.43
2022-09-16T05:37:13.546Z,13.42
2022-09-16T05:40:59.579Z,13.44
2022-09-16T05:44:42.391Z,13.46
2022-09-16T05:48:25.739Z,13.45
2022-09-16T05:52:08.477Z,13.44
2022-09-16T05:56:00.177Z,13.51
2022-09-16T05:59:43.122Z,13.57
2022-09-16T06:03:27.074Z,13.63
2022-09-16T06:07:10.170Z,13.73
2022-09-16T06:10:52.861Z,13.75
2022-09-16T06:14:36.928Z,13.72
2022-09-16T06:18:19.785Z,13.75
2022-09-16T06:22:02.474Z,13.78
2022-09-16T06:25:45.347Z,13.79
2022-09-16T06:29:28.095Z,13.82
2022-09-16T06:33:12.837Z,13.83
2022-09-16T06:36:55.705Z,13.86
2022-09-16T06:40:38.360Z,13.91
2022-09-16T06:44:21.466Z,13.90
2022-09-16T06:48:04.269Z,13.96
2022-09-16T06:51:48.290Z,14.01
2022-09-16T06:55:30.941Z,14.02
2022-09-16T06:59:14.435Z,13.98
2022-09-16T07:02:57.189Z,13.97
2022-09-16T07:10:44.392Z,14.03
2022-09-16T07:14:27.405Z,14.10
2022-09-16T07:18:10.088Z,14.08
2022-09-16T07:21:52.774Z,14.13
2022-09-16T07:25:36.029Z,14.12
2022-09-16T07:29:20.574Z,14.20
2022-09-16T07:33:03.275Z,14.21
2022-09-16T07:36:47.620Z,14.20
2022-09-16T07:40:30.398Z,14.24
2022-09-16T07:44:16.067Z,14.23
2022-09-16T07:48:00.116Z,14.29
2022-09-16T07:51:43.169Z,14.30
2022-09-16T07:55:26.561Z,14.39
2022-09-16T07:59:15.830Z,14.37
2022-09-16T08:03:02.787Z,14.35
2022-09-16T08:06:45.583Z,14.38
2022-09-16T08:10:32.235Z,14.39
2022-09-16T08:14:15.163Z,14.42
2022-09-16T08:17:57.870Z,14.47
2022-09-16T08:21:41.934Z,14.58
2022-09-16T08:25:24.667Z,14.65
2022-09-16T08:29:09.408Z,14.65
2022-09-16T08:32:56.944Z,14.65
2022-09-16T08:36:42.505Z,14.71
2022-09-16T08:40:26.422Z,14.76
2022-09-16T08:44:18.430Z,14.81
2022-09-16T08:48:09.067Z,14.87
2022-09-16T08:51:53.756Z,14.92
2022-09-16T08:55:39.511Z,14.93
2022-09-16T08:59:26.080Z,14.99
2022-09-16T09:03:17.881Z,15.02
2022-09-16T09:07:07.907Z,14.95
2022-09-16T09:10:53.581Z,14.95
2022-09-16T09:14:46.055Z,14.92
2022-09-16T09:18:37.842Z,14.92
2022-09-16T09:22:28.748Z,14.99
2022-09-16T09:26:15.972Z,15.04
2022-09-16T09:30:12.017Z,14.98
2022-09-16T09:34:01.384Z,14.95
2022-09-16T09:37:55.767Z,15.00
2022-09-16T09:41:41.894Z,14.96
2022-09-16T09:45:28.471Z,14.93
2022-09-16T09:49:13.320Z,14.87
2022-09-16T09:53:02.291Z,14.85
2022-09-16T09:56:46.315Z,14.86
2022-09-16T10:00:29.034Z,14.87
2022-09-16T10:04:14.055Z,14.93
2022-09-16T10:08:00.299Z,14.90
2022-09-16T10:11:47.736Z,14.81
2022-09-16T10:15:31.786Z,14.76
2022-09-16T10:19:20.906Z,14.79
2022-09-16T10:23:07.370Z,14.81
2022-09-16T10:26:50.027Z,14.80
2022-09-16T10:30:34.212Z,14.82
2022-09-16T10:34:23.788Z,14.83
2022-09-16T10:38:18.562Z,14.89
2022-09-16T10:42:01.537Z,14.89
2022-09-16T10:45:47.205Z,14.96
2022-09-16T10:49:36.639Z,15.02
2022-09-16T10:53:27.497Z,15.08
2022-09-16T10:57:26.096Z,15.17
2022-09-16T11:01:23.460Z,15.13
2022-09-16T11:05:09.177Z,15.17
2022-09-16T11:09:02.911Z,14.75
2022-09-16T11:12:56.339Z,14.32
2022-09-16T11:16:54.048Z,14.01
2022-09-16T11:20:54.931Z,13.81
2022-09-16T11:25:07.955Z,13.63
2022-09-16T11:29:13.506Z,13.46
2022-09-16T11:33:05.207Z,13.30
2022-09-16T11:36:57.288Z,13.25
2022-09-16T11:40:47.856Z,13.14
2022-09-16T11:44:41.053Z,12.87
2022-09-16T11:48:33.771Z,12.42
2022-09-16T11:52:27.210Z,12.12
2022-09-16T11:56:15.064Z,11.94
2022-09-16T12:00:00.673Z,11.86
2022-09-16T12:03:47.673Z,11.73
2022-09-16T12:07:34.244Z,11.69
2022-09-16T12:11:24.040Z,11.61
2022-09-16T12:15:14.005Z,11.72
2022-09-16T12:18:58.764Z,11.80
2022-09-16T12:22:44.420Z,11.88
2022-09-16T12:26:32.157Z,11.87
2022-09-16T12:30:18.452Z,11.75
2022-09-16T12:34:04.017Z,11.75
2022-09-16T12:37:48.540Z,11.74
2022-09-16T12:41:45.459Z,11.75
2022-09-16T12:46:02.491Z,11.68
2022-09-16T12:50:08.937Z,11.60
2022-09-16T12:54:03.362Z,11.59
2022-09-16T12:58:00.461Z,11.68
2022-09-16T13:01:46.185Z,11.67
2022-09-16T13:05:33.158Z,11.63
2022-09-16T13:09:24.611Z,11.60
2022-09-16T13:13:09.051Z,11.62
2022-09-16T13:16:56.170Z,11.62
2022-09-16T13:20:42.281Z,11.59
2022-09-16T13:24:29.604Z,11.54
2022-09-16T13:28:28.203Z,11.55
2022-09-16T13:32:30.286Z,11.70
2022-09-16T13:36:31.595Z,11.85
2022-09-16T13:40:19.833Z,11.97
2022-09-16T13:44:25.434Z,12.12
2022-09-16T13:48:13.022Z,12.22
2022-09-16T13:51:55.893Z,12.16
2022-09-16T13:55:39.163Z,12.23
2022-09-16T13:59:33.543Z,12.11
2022-09-16T14:03:40.112Z,11.99
2022-09-16T14:07:29.697Z,11.90
2022-09-16T14:11:26.331Z,11.86
2022-09-16T14:15:11.853Z,11.86
2022-09-16T14:18:59.771Z,11.85
2022-09-16T14:22:45.445Z,11.89
2022-09-16T14:26:28.138Z,11.88
2022-09-16T14:30:17.910Z,12.08
2022-09-16T14:34:04.517Z,11.94
2022-09-16T14:37:49.333Z,11.90
2022-09-16T14:41:34.320Z,11.95
2022-09-16T14:45:19.042Z,12.02
2022-09-16T14:49:01.755Z,12.13
2022-09-16T14:52:54.675Z,12.11
2022-09-16T14:56:37.391Z,12.14
2022-09-16T15:00:22.146Z,12.19
2022-09-16T15:04:07.322Z,12.19
2022-09-16T15:08:12.779Z,12.16
2022-09-16T15:11:56.525Z,12.20
2022-09-16T15:15:47.576Z,12.18
2022-09-16T15:19:33.858Z,12.09
2022-09-16T15:23:22.027Z,12.13
2022-09-16T15:27:04.845Z,12.12
2022-09-16T15:30:50.468Z,12.16
2022-09-16T15:34:33.131Z,12.20
2022-09-16T15:38:23.771Z,12.24
2022-09-16T15:42:17.377Z,12.23
2022-09-16T15:46:04.737Z,12.14
2022-09-16T15:49:48.789Z,12.17
2022-09-16T15:53:45.908Z,12.13
2022-09-16T15:57:31.791Z,12.11
2022-09-16T16:01:17.861Z,12.11
2022-09-16T16:05:07.763Z,12.11
2022-09-16T16:08:51.812Z,12.10
2022-09-16T16:12:34.512Z,12.11
2022-09-16T16:16:19.010Z,12.09
2022-09-16T16:20:02.314Z,12.10
2022-09-16T16:23:45.386Z,12.06
2022-09-16T16:27:28.292Z,12.09
2022-09-16T16:31:16.324Z,12.07
2022-09-16T16:35:00.509Z,12.02
2022-09-16T16:38:43.686Z,12.09
2022-09-16T16:42:28.636Z,12.08
2022-09-16T16:46:11.349Z,12.02
2022-09-16T16:49:54.093Z,11.96
2022-09-16T16:53:38.605Z,12.04
2022-09-16T16:57:21.250Z,11.99
2022-09-16T17:01:12.569Z,12.02
2022-09-16T17:04:55.797Z,11.94
2022-09-16T17:08:39.831Z,11.91
2022-09-16T17:12:25.254Z,11.83
2022-09-16T17:16:08.875Z,11.75
2022-09-16T17:19:51.568Z,11.79
2022-09-16T17:23:34.508Z,11.83
2022-09-16T17:27:20.625Z,11.79
2022-09-16T17:31:03.333Z,11.74
2022-09-16T17:34:46.017Z,11.70
2022-09-16T17:38:28.707Z,11.75
2022-09-16T17:42:11.368Z,11.64
2022-09-16T17:45:55.762Z,11.61
2022-09-16T17:49:38.486Z,11.60
2022-09-16T17:53:21.306Z,11.54
2022-09-16T17:57:03.956Z,11.53
2022-09-16T18:00:46.764Z,11.46
2022-09-16T18:04:31.111Z,11.38
2022-09-16T18:08:13.935Z,11.30
2022-09-16T18:11:58.335Z,11.32
2022-09-16T18:15:41.029Z,11.32
2022-09-16T18:19:23.766Z,11.29
2022-09-16T18:23:21.131Z,11.34
2022-09-16T18:27:04.022Z,11.28
2022-09-16T18:30:46.793Z,11.29
2022-09-16T18:34:33.650Z,11.30
2022-09-16T18:38:17.988Z,11.33
2022-09-16T18:42:00.834Z,11.41
2022-09-16T18:45:43.493Z,11.36
2022-09-16T18:49:28.945Z,11.36
2022-09-16T18:53:11.608Z,11.32
2022-09-16T18:56:56.527Z,11.39
2022-09-16T19:00:39.162Z,11.35
2022-09-16T19:04:25.313Z,11.32
2022-09-16T19:08:08.098Z,11.34
2022-09-16T19:11:52.393Z,11.37
2022-09-16T19:15:36.554Z,11.39
2022-09-16T19:19:22.528Z,11.41
2022-09-16T19:23:05.151Z,11.34
2022-09-16T19:26:49.058Z,11.42
2022-09-16T19:30:31.842Z,11.35
2022-09-16T19:34:16.721Z,11.42
2022-09-16T19:38:02.659Z,11.44
2022-09-16T19:41:45.560Z,11.37
2022-09-16T19:45:28.208Z,11.43
2022-09-16T19:49:16.831Z,11.41
2022-09-16T19:52:59.541Z,11.41
2022-09-16T19:56:44.966Z,11.44
2022-09-16T20:00:52.610Z,11.40
2022-09-16T20:04:35.219Z,11.47
2022-09-16T20:08:17.880Z,11.47
2022-09-16T20:12:00.543Z,11.49
2022-09-16T20:15:43.430Z,11.50
2022-09-16T20:19:27.674Z,11.50
2022-09-16T20:23:11.703Z,11.49
2022-09-16T20:26:55.476Z,11.56
2022-09-16T20:30:38.196Z,11.45
2022-09-16T20:34:22.925Z,11.50
2022-09-16T20:38:05.635Z,11.53
2022-09-16T20:41:52.554Z,11.50
2022-09-16T20:45:37.026Z,11.54
2022-09-16T20:49:22.854Z,11.55
2022-09-16T20:53:05.905Z,11.49
2022-09-16T20:56:50.313Z,11.51
2022-09-16T21:00:33.561Z,11.52
2022-09-16T21:04:18.186Z,11.45
2022-09-16T21:08:00.868Z,11.50
2022-09-16T21:11:45.041Z,11.57
2022-09-16T21:15:29.282Z,11.64
2022-09-16T21:19:12.928Z,11.59
2022-09-16T21:22:55.678Z,11.59
2022-09-16T21:26:40.109Z,11.54
2022-09-16T21:30:22.863Z,11.40
2022-09-16T21:34:08.035Z,11.39
2022-09-16T21:37:52.165Z,11.43
2022-09-16T21:41:34.988Z,11.50
2022-09-16T21:45:17.645Z,11.58
2022-09-16T21:49:05.123Z,11.43
2022-09-16T21:52:51.493Z,11.40
2022-09-16T21:56:34.327Z,11.32
2022-09-16T22:00:17.640Z,11.39
2022-09-16T22:04:01.661Z,11.32
2022-09-16T22:07:44.333Z,11.31
2022-09-16T22:11:33.170Z,11.28
2022-09-16T22:15:16.652Z,11.29
2022-09-16T22:19:01.707Z,11.29
2022-09-16T22:22:44.544Z,11.24
2022-09-16T22:26:29.495Z,11.20
2022-09-16T22:30:13.475Z,11.14
2022-09-16T22:34:00.269Z,11.17
2022-09-16T22:37:42.909Z,11.12
2022-09-16T22:41:26.226Z,11.12
2022-09-16T22:45:10.949Z,11.03
2022-09-16T22:48:54.392Z,10.97
2022-09-16T22:52:37.064Z,10.95
2022-09-16T22:56:21.255Z,10.87
2022-09-16T23:00:04.123Z,10.89
2022-09-16T23:03:50.029Z,10.86
2022-09-16T23:07:33.746Z,10.90
2022-09-16T23:11:18.048Z,10.97
2022-09-16T23:15:00.839Z,10.88
2022-09-16T23:18:44.427Z,10.85
2022-09-16T23:22:28.461Z,10.87
2022-09-16T23:26:13.119Z,10.80
2022-09-16T23:29:55.849Z,10.68
2022-09-16T23:33:39.080Z,10.65
2022-09-16T23:37:21.778Z,10.65
2022-09-16T23:41:06.618Z,10.59
2022-09-16T23:44:49.323Z,10.61
2022-09-16T23:48:32.303Z,10.57
2022-09-16T23:52:15.063Z,10.44
2022-09-16T23:55:57.696Z,10.44
2022-09-16T23:59:41.775Z,10.37
